Time;durP1;ratioP1;P1;durP2;ratioP2;P2;SDS_P1;SDS_P2;PMS_P1;PMS_P2;Temp;Humidity;BMP_temperature;BMP_pressure;BME280_temperature;BME280_humidity;BME280_pressure;Samples;Min_cycle;Max_cycle;Signal;HPM_P1;HPM_P2
2022/12/09 00:00:30;;;;;;;43.10;23.85;;;;;;;;;;4992034;28;100682;-72
2022/12/09 00:02:57;;;;;;;48.53;25.80;;;;;;;;;;4991562;28;99029;-73
2022/12/09 00:05:24;;;;;;;46.53;26.83;;;;;;;;;;4985322;28;100086;-73
2022/12/09 00:07:50;;;;;;;47.50;26.30;;;;;;;;;;4995881;28;100515;-73
2022/12/09 00:10:17;;;;;;;52.05;27.80;;;;;;;;;;4987092;28;100227;-73
2022/12/09 00:12:43;;;;;;;58.30;31.38;;;;;;;;;;4994709;28;99106;-72
2022/12/09 00:15:10;;;;;;;55.70;30.23;;;;;;;;;;4995069;28;100437;-73
2022/12/09 00:17:36;;;;;;;51.35;28.42;;;;;;;;;;4993724;28;99237;-74
2022/12/09 00:20:03;;;;;;;54.38;26.55;;;;;;;;;;4989096;28;100004;-72
2022/12/09 00:22:30;;;;;;;53.28;26.45;;;;;;;;;;4992363;28;100022;-73
2022/12/09 00:24:57;;;;;;;54.70;28.13;;;;;;;;;;4987575;28;98992;-72
2022/12/09 00:27:23;;;;;;;51.15;27.08;;;;;;;;;;5004348;28;100682;-73
2022/12/09 00:29:50;;;;;;;63.40;27.00;;;;;;;;;;4991764;28;100377;-73
2022/12/09 00:32:17;;;;;;;58.47;27.92;;;;;;;;;;4981589;28;100509;-73
2022/12/09 00:34:43;;;;;;;55.15;27.25;;;;;;;;;;4990990;28;98950;-73
2022/12/09 00:37:10;;;;;;;61.03;29.23;;;;;;;;;;4998842;28;98650;-73
2022/12/09 00:39:36;;;;;;;58.50;27.90;;;;;;;;;;4999296;28;99128;-72
2022/12/09 00:42:03;;;;;;;57.53;30.10;;;;;;;;;;4987280;28;102785;-72
2022/12/09 00:44:29;;;;;;;54.30;28.88;;;;;;;;;;4987627;28;101044;-72
2022/12/09 00:46:56;;;;;;;52.10;29.17;;;;;;;;;;4990952;28;100330;-73
2022/12/09 00:49:23;;;;;;;61.88;29.55;;;;;;;;;;4994833;28;99044;-72
2022/12/09 00:51:49;;;;;;;62.35;32.67;;;;;;;;;;5002054;28;99056;-72
2022/12/09 00:54:16;;;;;;;52.78;29.35;;;;;;;;;;5002329;28;99380;-72
2022/12/09 00:56:42;;;;;;;57.42;31.23;;;;;;;;;;4978647;28;101004;-73
2022/12/09 00:59:09;;;;;;;55.10;30.65;;;;;;;;;;5002194;28;98555;-72
2022/12/09 01:01:35;;;;;;;53.08;29.17;;;;;;;;;;4990483;28;100044;-73
2022/12/09 01:04:04;;;;;;;54.88;29.73;;;;;;;;;;5002626;28;99386;-73
2022/12/09 01:06:30;;;;;;;58.55;30.75;;;;;;;;;;5008967;28;100034;-73
2022/12/09 01:08:57;;;;;;;59.28;29.75;;;;;;;;;;5002275;28;99996;-73
2022/12/09 01:11:25;;;;;;;49.33;29.23;;;;;;;;;;4979745;28;100548;-73
2022/12/09 01:13:52;;;;;;;51.72;27.63;;;;;;;;;;4998769;28;99250;-73
2022/12/09 01:16:20;;;;;;;54.05;27.77;;;;;;;;;;4984895;28;99864;-72
2022/12/09 01:18:47;;;;;;;50.78;28.45;;;;;;;;;;5004738;28;99799;-73
2022/12/09 01:21:14;;;;;;;54.90;28.63;;;;;;;;;;5002109;28;99990;-72
2022/12/09 01:23:41;;;;;;;53.08;28.08;;;;;;;;;;4988254;28;99226;-73
2022/12/09 01:26:08;;;;;;;51.60;26.13;;;;;;;;;;4998747;28;100615;-72
2022/12/09 01:28:35;;;;;;;60.75;27.67;;;;;;;;;;4980250;28;99122;-73
2022/12/09 01:31:05;;;;;;;49.70;28.05;;;;;;;;;;4994741;28;99861;-72
2022/12/09 01:33:32;;;;;;;53.15;28.55;;;;;;;;;;5008645;28;100816;-73
2022/12/09 01:35:59;;;;;;;49.65;26.63;;;;;;;;;;4998486;28;98800;-73
2022/12/09 01:38:25;;;;;;;50.50;26.58;;;;;;;;;;4995758;28;98949;-71
2022/12/09 01:40:51;;;;;;;60.92;28.63;;;;;;;;;;4995589;28;99285;-74
2022/12/09 01:43:19;;;;;;;51.58;28.08;;;;;;;;;;4982468;28;102084;-72
2022/12/09 01:45:45;;;;;;;57.08;28.02;;;;;;;;;;4997166;28;99973;-73
2022/12/09 01:48:12;;;;;;;52.78;27.42;;;;;;;;;;5002869;28;100034;-73
2022/12/09 01:50:44;;;;;;;58.72;27.67;;;;;;;;;;4994101;28;99312;-73
2022/12/09 01:53:12;;;;;;;49.55;26.85;;;;;;;;;;5001684;28;99346;-73
2022/12/09 01:55:39;;;;;;;54.67;27.50;;;;;;;;;;4974727;28;101149;-73
2022/12/09 01:58:06;;;;;;;65.45;28.90;;;;;;;;;;4978642;28;98689;-72
2022/12/09 02:00:33;;;;;;;60.28;28.95;;;;;;;;;;4984212;28;101765;-73
2022/12/09 02:03:01;;;;;;;59.97;28.48;;;;;;;;;;4971570;28;101364;-72
2022/12/09 02:05:29;;;;;;;56.05;27.13;;;;;;;;;;4972430;28;100485;-73
2022/12/09 02:07:58;;;;;;;62.22;28.00;;;;;;;;;;4979386;28;101741;-73
2022/12/09 02:10:25;;;;;;;61.65;30.13;;;;;;;;;;4986894;28;99833;-73
2022/12/09 02:13:21;;;;;;;55.83;26.70;;;;;;;;;;4978786;28;100616;-73
2022/12/09 02:15:52;;;;;;;51.45;26.45;;;;;;;;;;4973198;28;100909;-73
2022/12/09 02:18:18;;;;;;;49.72;27.08;;;;;;;;;;4985901;28;100863;-72
2022/12/09 02:21:01;;;;;;;54.35;27.27;;;;;;;;;;4971131;28;100922;-72
2022/12/09 02:23:38;;;;;;;56.37;29.03;;;;;;;;;;4980653;28;98779;-73
2022/12/09 02:26:16;;;;;;;54.47;27.00;;;;;;;;;;4968259;28;101192;-73
2022/12/09 02:29:02;;;;;;;58.15;28.10;;;;;;;;;;4969762;28;99995;-73
2022/12/09 02:31:35;;;;;;;53.28;28.27;;;;;;;;;;4984334;28;101606;-72
2022/12/09 02:34:21;;;;;;;58.17;29.48;;;;;;;;;;4975255;28;102811;-73
2022/12/09 02:36:58;;;;;;;60.63;28.40;;;;;;;;;;4979611;28;101678;-73
2022/12/09 02:39:33;;;;;;;60.42;28.58;;;;;;;;;;4977195;28;99310;-73
2022/12/09 02:42:03;;;;;;;55.15;27.83;;;;;;;;;;4975377;28;100589;-73
2022/12/09 02:44:30;;;;;;;64.15;29.52;;;;;;;;;;4978068;28;101748;-73
2022/12/09 02:46:57;;;;;;;56.35;28.48;;;;;;;;;;4968864;28;100014;-72
2022/12/09 02:49:25;;;;;;;55.25;29.23;;;;;;;;;;4980161;28;99132;-73
2022/12/09 02:51:53;;;;;;;57.78;28.45;;;;;;;;;;4986578;28;101408;-73
2022/12/09 02:54:22;;;;;;;63.78;29.73;;;;;;;;;;4982797;28;101214;-73
2022/12/09 02:56:55;;;;;;;54.92;29.00;;;;;;;;;;4993219;28;99880;-73
2022/12/09 02:59:22;;;;;;;58.30;30.10;;;;;;;;;;4997331;28;98853;-73
2022/12/09 03:02:04;;;;;;;54.38;29.45;;;;;;;;;;4997077;28;100103;-72
2022/12/09 03:04:31;;;;;;;58.90;28.15;;;;;;;;;;4994765;28;99974;-72
2022/12/09 03:07:08;;;;;;;56.35;29.05;;;;;;;;;;4993085;28;99668;-73
2022/12/09 03:09:36;;;;;;;54.38;29.45;;;;;;;;;;4984654;28;100042;-73
2022/12/09 03:12:06;;;;;;;54.35;28.58;;;;;;;;;;5000928;28;99315;-73
2022/12/09 03:14:45;;;;;;;55.97;28.38;;;;;;;;;;4992827;28;99286;-73
2022/12/09 03:17:14;;;;;;;61.78;29.00;;;;;;;;;;4984981;28;100616;-73
2022/12/09 03:19:41;;;;;;;57.35;28.35;;;;;;;;;;4996119;28;99903;-73
2022/12/09 03:22:11;;;;;;;52.53;27.70;;;;;;;;;;4993530;28;100198;-73
2022/12/09 03:24:40;;;;;;;68.40;28.38;;;;;;;;;;4995539;28;100020;-73
2022/12/09 03:27:08;;;;;;;55.53;28.15;;;;;;;;;;4996421;28;99257;-73
2022/12/09 03:29:37;;;;;;;56.50;27.17;;;;;;;;;;4992096;28;99385;-73
2022/12/09 03:32:03;;;;;;;58.58;27.77;;;;;;;;;;5004111;28;99878;-73
2022/12/09 03:34:32;;;;;;;64.60;28.33;;;;;;;;;;4995579;28;100075;-73
2022/12/09 03:37:00;;;;;;;57.88;28.52;;;;;;;;;;4986784;28;100003;-73
2022/12/09 03:39:30;;;;;;;58.97;27.92;;;;;;;;;;4995849;28;101157;-74
2022/12/09 03:41:58;;;;;;;61.20;27.98;;;;;;;;;;4993532;28;100039;-73
2022/12/09 03:44:28;;;;;;;63.15;28.30;;;;;;;;;;4990707;28;99868;-73
2022/12/09 03:46:55;;;;;;;64.32;27.90;;;;;;;;;;4995030;28;99032;-72
2022/12/09 03:49:22;;;;;;;61.67;27.52;;;;;;;;;;5003365;28;100201;-73
2022/12/09 03:52:03;;;;;;;66.45;27.77;;;;;;;;;;4999045;28;100282;-73
2022/12/09 03:54:37;;;;;;;63.65;27.95;;;;;;;;;;4973535;28;99679;-73
2022/12/09 03:57:04;;;;;;;68.57;28.40;;;;;;;;;;4986274;28;99040;-73
2022/12/09 03:59:32;;;;;;;58.60;27.70;;;;;;;;;;4995065;28;99285;-73
2022/12/09 04:01:59;;;;;;;67.38;29.58;;;;;;;;;;4993462;28;100171;-72
2022/12/09 04:04:26;;;;;;;64.05;26.58;;;;;;;;;;4984345;28;100279;-73
2022/12/09 04:06:53;;;;;;;62.70;27.55;;;;;;;;;;4991791;28;100130;-73
2022/12/09 04:09:19;;;;;;;61.72;26.90;;;;;;;;;;4995400;28;100548;-73
2022/12/09 04:11:46;;;;;;;63.85;27.65;;;;;;;;;;4992179;28;99963;-72
2022/12/09 04:14:13;;;;;;;64.93;27.67;;;;;;;;;;5003555;28;100256;-72
2022/12/09 04:16:41;;;;;;;58.47;26.65;;;;;;;;;;4984611;28;100163;-73
2022/12/09 04:19:08;;;;;;;54.88;26.65;;;;;;;;;;5000931;28;99025;-72
2022/12/09 04:21:34;;;;;;;62.17;28.25;;;;;;;;;;4991866;28;100612;-73
2022/12/09 04:24:01;;;;;;;52.97;26.45;;;;;;;;;;4992328;28;100312;-73
2022/12/09 04:26:27;;;;;;;56.63;26.42;;;;;;;;;;4991465;28;100896;-74
2022/12/09 04:28:55;;;;;;;62.42;26.90;;;;;;;;;;4999477;28;99281;-73
2022/12/09 04:31:22;;;;;;;60.58;27.17;;;;;;;;;;4988031;28;99968;-73
2022/12/09 04:33:48;;;;;;;64.47;27.05;;;;;;;;;;4986484;28;98931;-72
2022/12/09 04:36:16;;;;;;;65.40;26.55;;;;;;;;;;4991145;28;101023;-73
2022/12/09 04:38:43;;;;;;;65.97;30.15;;;;;;;;;;4985651;28;99989;-73
2022/12/09 04:41:09;;;;;;;64.82;26.45;;;;;;;;;;4988493;28;100553;-73
2022/12/09 04:43:36;;;;;;;63.15;27.45;;;;;;;;;;4987450;28;99113;-73
2022/12/09 04:46:04;;;;;;;71.43;27.95;;;;;;;;;;5002428;28;98595;-74
2022/12/09 04:48:32;;;;;;;66.60;26.50;;;;;;;;;;4995650;28;100293;-74
2022/12/09 04:50:58;;;;;;;68.70;28.38;;;;;;;;;;4992818;28;100041;-74
2022/12/09 04:53:25;;;;;;;64.57;26.02;;;;;;;;;;4982913;28;99938;-74
2022/12/09 04:55:59;;;;;;;68.68;27.48;;;;;;;;;;4994575;28;99620;-74
2022/12/09 04:58:27;;;;;;;71.57;28.02;;;;;;;;;;4992032;28;99062;-74
2022/12/09 05:00:53;;;;;;;76.13;29.67;;;;;;;;;;4991540;28;99664;-74
2022/12/09 05:03:20;;;;;;;62.15;29.58;;;;;;;;;;4996221;28;100118;-73
2022/12/09 05:05:47;;;;;;;65.07;27.55;;;;;;;;;;4988224;28;99323;-73
2022/12/09 05:08:15;;;;;;;59.92;28.70;;;;;;;;;;4994242;28;98599;-73
2022/12/09 05:10:46;;;;;;;57.22;27.73;;;;;;;;;;5002448;28;100129;-73
2022/12/09 05:13:13;;;;;;;64.65;27.55;;;;;;;;;;4987654;28;99910;-73
2022/12/09 05:15:39;;;;;;;73.60;27.83;;;;;;;;;;4986514;28;100879;-73
2022/12/09 05:18:06;;;;;;;64.00;27.88;;;;;;;;;;4998024;28;100458;-73
2022/12/09 05:20:33;;;;;;;73.07;28.58;;;;;;;;;;4999763;28;102113;-73
2022/12/09 05:23:00;;;;;;;67.80;27.58;;;;;;;;;;4999609;28;100275;-73
2022/12/09 05:25:34;;;;;;;65.32;28.08;;;;;;;;;;4997926;28;99993;-74
2022/12/09 05:28:01;;;;;;;66.78;28.42;;;;;;;;;;4992908;28;100391;-73
2022/12/09 05:30:28;;;;;;;62.90;27.20;;;;;;;;;;5003871;28;99845;-73
2022/12/09 05:32:54;;;;;;;60.95;25.90;;;;;;;;;;4994600;28;99972;-73
2022/12/09 05:35:21;;;;;;;61.88;27.58;;;;;;;;;;5002353;28;100271;-73
2022/12/09 05:37:48;;;;;;;63.22;26.48;;;;;;;;;;4987691;28;99299;-74
2022/12/09 05:40:14;;;;;;;56.75;26.25;;;;;;;;;;5004234;28;100043;-72
2022/12/09 05:42:41;;;;;;;63.80;27.88;;;;;;;;;;4989165;28;99642;-73
2022/12/09 05:45:08;;;;;;;53.45;25.92;;;;;;;;;;4996873;28;98995;-72
2022/12/09 05:47:34;;;;;;;57.83;26.40;;;;;;;;;;5005950;28;100465;-73
2022/12/09 05:50:01;;;;;;;54.33;25.58;;;;;;;;;;4994345;28;99970;-73
2022/12/09 05:52:34;;;;;;;52.80;22.67;;;;;;;;;;4985374;28;99053;-73
2022/12/09 05:55:07;;;;;;;54.08;24.27;;;;;;;;;;5004297;28;99626;-72
2022/12/09 05:57:35;;;;;;;54.88;22.80;;;;;;;;;;4991135;28;99154;-73
2022/12/09 06:00:03;;;;;;;62.10;24.52;;;;;;;;;;4993933;28;99038;-73
2022/12/09 06:02:37;;;;;;;46.40;23.48;;;;;;;;;;4995933;28;99246;-73
2022/12/09 06:05:03;;;;;;;55.58;25.58;;;;;;;;;;4987311;28;100029;-73
2022/12/09 06:07:30;;;;;;;85.82;24.15;;;;;;;;;;4993533;28;100130;-73
2022/12/09 06:09:57;;;;;;;150.63;30.30;;;;;;;;;;4992482;28;99623;-72
2022/12/09 06:12:24;;;;;;;93.72;29.17;;;;;;;;;;5002046;28;99976;-73
2022/12/09 06:14:51;;;;;;;80.68;27.13;;;;;;;;;;4986845;28;100021;-73
2022/12/09 06:17:18;;;;;;;188.07;33.03;;;;;;;;;;5004354;28;99896;-73
2022/12/09 06:19:44;;;;;;;157.25;28.92;;;;;;;;;;5003274;28;99398;-72
2022/12/09 06:22:11;;;;;;;240.15;32.50;;;;;;;;;;4989944;28;98564;-72
2022/12/09 06:24:38;;;;;;;371.08;34.03;;;;;;;;;;4992242;28;99937;-73
2022/12/09 06:27:04;;;;;;;676.00;43.28;;;;;;;;;;4990342;28;99663;-73
2022/12/09 06:29:31;;;;;;;562.53;41.60;;;;;;;;;;4995527;28;99932;-73
2022/12/09 06:31:57;;;;;;;430.73;36.55;;;;;;;;;;5005543;28;100706;-73
2022/12/09 06:34:24;;;;;;;599.30;42.15;;;;;;;;;;5004097;28;100432;-73
2022/12/09 06:36:51;;;;;;;393.38;37.67;;;;;;;;;;4989540;28;99136;-73
2022/12/09 06:39:18;;;;;;;642.60;48.97;;;;;;;;;;4998125;28;99184;-71
2022/12/09 06:41:45;;;;;;;510.73;44.92;;;;;;;;;;5001894;28;100643;-73
2022/12/09 06:44:12;;;;;;;545.45;46.35;;;;;;;;;;4996753;28;99886;-72
2022/12/09 06:46:48;;;;;;;485.63;41.10;;;;;;;;;;4986506;28;99738;-72
2022/12/09 06:49:15;;;;;;;456.92;40.83;;;;;;;;;;4993196;28;98991;-73
2022/12/09 06:51:41;;;;;;;532.47;45.03;;;;;;;;;;4984849;28;99348;-73
2022/12/09 06:54:08;;;;;;;647.60;45.97;;;;;;;;;;4988729;28;101153;-73
2022/12/09 06:56:35;;;;;;;745.83;53.33;;;;;;;;;;4997154;28;99080;-73
2022/12/09 06:59:04;;;;;;;468.45;38.65;;;;;;;;;;4986079;28;100176;-73
2022/12/09 07:01:31;;;;;;;518.72;40.90;;;;;;;;;;4985128;28;99847;-73
2022/12/09 07:03:58;;;;;;;578.47;45.58;;;;;;;;;;4999461;28;99610;-73
2022/12/09 07:06:29;;;;;;;544.75;40.13;;;;;;;;;;5005188;28;98956;-74
2022/12/09 07:08:57;;;;;;;475.55;40.88;;;;;;;;;;4997031;28;99175;-73
2022/12/09 07:11:24;;;;;;;373.67;36.35;;;;;;;;;;4999426;28;99328;-74
2022/12/09 07:13:51;;;;;;;392.88;37.08;;;;;;;;;;5001425;28;100118;-73
2022/12/09 07:16:17;;;;;;;559.92;38.10;;;;;;;;;;4998517;28;100708;-72
2022/12/09 07:18:44;;;;;;;495.98;38.67;;;;;;;;;;4999453;28;99587;-73
2022/12/09 07:21:12;;;;;;;510.08;39.75;;;;;;;;;;5000714;28;99491;-73
2022/12/09 07:23:40;;;;;;;391.67;36.58;;;;;;;;;;4992880;28;99846;-73
2022/12/09 07:26:07;;;;;;;347.98;34.15;;;;;;;;;;4997148;28;100219;-72
2022/12/09 07:28:34;;;;;;;321.50;34.22;;;;;;;;;;4997386;28;99528;-73
2022/12/09 07:31:01;;;;;;;438.42;41.63;;;;;;;;;;4989338;28;99983;-72
2022/12/09 07:33:28;;;;;;;468.45;42.42;;;;;;;;;;4994482;28;100504;-73
2022/12/09 07:35:56;;;;;;;341.33;38.33;;;;;;;;;;5002753;28;100241;-73
2022/12/09 07:38:23;;;;;;;462.40;41.17;;;;;;;;;;4990031;28;99814;-72
2022/12/09 07:40:50;;;;;;;528.90;48.40;;;;;;;;;;4994732;28;99331;-74
2022/12/09 07:43:17;;;;;;;292.88;35.97;;;;;;;;;;4992051;28;100069;-73
2022/12/09 07:45:44;;;;;;;232.68;36.55;;;;;;;;;;5000912;28;98989;-72
2022/12/09 07:48:11;;;;;;;444.73;40.60;;;;;;;;;;4984940;28;100578;-72
2022/12/09 07:50:37;;;;;;;249.35;35.00;;;;;;;;;;4994521;28;99023;-72
2022/12/09 07:53:04;;;;;;;305.77;37.65;;;;;;;;;;4988192;28;100502;-72
2022/12/09 07:55:32;;;;;;;523.17;40.50;;;;;;;;;;4992221;28;99979;-74
2022/12/09 07:57:58;;;;;;;573.10;41.63;;;;;;;;;;5009413;28;100567;-73
2022/12/09 08:00:24;;;;;;;561.42;51.95;;;;;;;;;;5004271;28;99795;-73
2022/12/09 08:02:52;;;;;;;642.97;51.53;;;;;;;;;;4995804;28;100181;-73
2022/12/09 08:05:19;;;;;;;659.08;45.42;;;;;;;;;;4987897;28;100288;-73
2022/12/09 08:07:46;;;;;;;470.70;39.75;;;;;;;;;;4995052;28;100173;-74
2022/12/09 08:10:13;;;;;;;471.50;36.55;;;;;;;;;;4994518;28;99085;-74
2022/12/09 08:12:40;;;;;;;329.90;30.55;;;;;;;;;;5000751;28;99977;-73
2022/12/09 08:15:06;;;;;;;304.67;29.67;;;;;;;;;;4992313;28;99060;-73
2022/12/09 08:17:34;;;;;;;477.95;36.53;;;;;;;;;;4992277;28;99992;-74
2022/12/09 08:20:01;;;;;;;639.67;51.47;;;;;;;;;;4991643;28;99282;-74
2022/12/09 08:22:28;;;;;;;638.25;44.70;;;;;;;;;;5003211;28;99965;-73
2022/12/09 08:24:55;;;;;;;514.88;37.30;;;;;;;;;;4995999;28;99239;-73
2022/12/09 08:27:21;;;;;;;598.67;44.25;;;;;;;;;;4993569;28;100063;-72
2022/12/09 08:29:48;;;;;;;705.28;48.25;;;;;;;;;;4983705;28;99567;-74
2022/12/09 08:32:15;;;;;;;788.35;50.05;;;;;;;;;;4983773;28;100091;-74
2022/12/09 08:34:42;;;;;;;611.65;40.88;;;;;;;;;;4997282;28;100403;-72
2022/12/09 08:37:09;;;;;;;614.25;38.95;;;;;;;;;;4997391;28;99863;-72
2022/12/09 08:39:36;;;;;;;587.55;42.90;;;;;;;;;;4993458;28;100235;-73
2022/12/09 08:42:02;;;;;;;619.45;40.60;;;;;;;;;;4994762;28;100217;-73
2022/12/09 08:44:29;;;;;;;613.40;38.22;;;;;;;;;;4995365;28;100088;-73
2022/12/09 08:46:56;;;;;;;577.55;38.30;;;;;;;;;;4986720;28;100276;-73
2022/12/09 08:49:23;;;;;;;543.28;36.13;;;;;;;;;;4998275;28;99014;-73
2022/12/09 08:51:51;;;;;;;498.13;34.47;;;;;;;;;;4997061;28;99213;-73
2022/12/09 08:54:18;;;;;;;396.80;30.17;;;;;;;;;;5003713;28;100058;-73
2022/12/09 08:56:46;;;;;;;355.95;29.60;;;;;;;;;;4996993;28;99635;-73
2022/12/09 08:59:13;;;;;;;285.00;28.38;;;;;;;;;;5002206;28;99822;-73
2022/12/09 09:01:39;;;;;;;438.85;40.40;;;;;;;;;;5001943;28;99403;-73
2022/12/09 09:04:08;;;;;;;396.42;35.17;;;;;;;;;;4995555;28;98780;-73
2022/12/09 09:06:39;;;;;;;251.95;28.58;;;;;;;;;;4995315;28;100275;-73
2022/12/09 09:09:06;;;;;;;292.00;29.35;;;;;;;;;;5003010;28;99233;-73
2022/12/09 09:11:33;;;;;;;183.98;28.05;;;;;;;;;;5000790;28;100159;-73
2022/12/09 09:14:02;;;;;;;345.02;35.20;;;;;;;;;;5006187;28;99021;-73
2022/12/09 09:16:28;;;;;;;333.00;30.75;;;;;;;;;;4997983;28;100450;-73
2022/12/09 09:18:56;;;;;;;244.07;31.00;;;;;;;;;;5003452;28;100332;-73
2022/12/09 09:21:25;;;;;;;273.48;27.20;;;;;;;;;;4997801;28;100119;-74
2022/12/09 09:23:52;;;;;;;347.17;26.13;;;;;;;;;;5000884;28;99938;-73
2022/12/09 09:26:21;;;;;;;231.55;29.02;;;;;;;;;;4995685;28;100271;-73
2022/12/09 09:28:48;;;;;;;169.95;25.98;;;;;;;;;;4987539;28;99928;-73
2022/12/09 09:31:16;;;;;;;335.17;30.95;;;;;;;;;;5001345;28;99839;-73
2022/12/09 09:33:44;;;;;;;278.15;26.67;;;;;;;;;;4992052;28;100223;-73
2022/12/09 09:36:12;;;;;;;170.38;26.40;;;;;;;;;;5005065;28;100058;-73
2022/12/09 09:38:39;;;;;;;507.60;43.58;;;;;;;;;;4998213;28;100884;-73
2022/12/09 09:41:14;;;;;;;231.93;21.52;;;;;;;;;;5002482;28;100223;-73
2022/12/09 09:43:42;;;;;;;200.98;17.50;;;;;;;;;;5005213;28;100011;-74
2022/12/09 09:46:14;;;;;;;191.50;20.90;;;;;;;;;;4997914;28;100907;-72
2022/12/09 09:48:41;;;;;;;83.80;16.38;;;;;;;;;;5002064;28;99122;-73
2022/12/09 09:51:17;;;;;;;175.10;19.80;;;;;;;;;;4993161;28;99465;-73
2022/12/09 09:53:44;;;;;;;145.93;21.98;;;;;;;;;;4989848;28;100195;-73
2022/12/09 09:56:34;;;;;;;129.70;22.02;;;;;;;;;;4997912;28;99439;-73
2022/12/09 09:59:13;;;;;;;158.30;25.23;;;;;;;;;;4947465;28;100204;-74
2022/12/09 10:01:44;;;;;;;131.07;24.95;;;;;;;;;;4999509;28;100778;-73
2022/12/09 10:04:19;;;;;;;133.38;24.92;;;;;;;;;;4986776;28;99949;-72
2022/12/09 10:06:46;;;;;;;129.45;25.40;;;;;;;;;;4997906;28;101031;-71
2022/12/09 10:09:31;;;;;;;81.00;26.35;;;;;;;;;;4998092;28;98862;-72
2022/12/09 10:12:13;;;;;;;55.92;27.67;;;;;;;;;;4997442;28;101025;-72
2022/12/09 10:14:56;;;;;;;51.30;28.25;;;;;;;;;;4994089;28;99348;-74
2022/12/09 10:17:27;;;;;;;49.95;29.23;;;;;;;;;;4994736;28;100430;-74
2022/12/09 10:19:57;;;;;;;53.50;27.80;;;;;;;;;;4993391;28;100292;-71
2022/12/09 10:22:27;;;;;;;53.17;28.38;;;;;;;;;;4993699;28;100171;-72
2022/12/09 10:24:55;;;;;;;57.50;29.15;;;;;;;;;;4979723;28;100330;-72
2022/12/09 10:27:28;;;;;;;47.33;27.42;;;;;;;;;;4993942;28;100330;-73
2022/12/09 10:30:00;;;;;;;52.50;29.48;;;;;;;;;;4986953;28;100006;-72
2022/12/09 10:32:29;;;;;;;51.15;30.92;;;;;;;;;;4992745;28;100961;-72
2022/12/09 10:34:56;;;;;;;46.78;29.10;;;;;;;;;;4994737;28;100417;-72
2022/12/09 10:37:35;;;;;;;45.75;28.52;;;;;;;;;;4985355;28;101092;-73
2022/12/09 10:40:02;;;;;;;53.13;28.85;;;;;;;;;;4996721;28;100685;-73
2022/12/09 10:45:15;;;;;;;44.65;28.30;;;;;;;;;;5005515;28;100275;-72
2022/12/09 10:47:48;;;;;;;48.83;29.15;;;;;;;;;;4999549;28;100037;-72
2022/12/09 10:50:25;;;;;;;54.28;31.65;;;;;;;;;;4985913;28;101144;-73
2022/12/09 10:52:53;;;;;;;43.40;26.65;;;;;;;;;;4995215;28;100390;-73
2022/12/09 10:55:30;;;;;;;49.00;28.77;;;;;;;;;;5000242;28;100017;-73
2022/12/09 10:58:10;;;;;;;47.60;27.73;;;;;;;;;;4990887;28;100380;-73
2022/12/09 11:00:37;;;;;;;53.50;28.73;;;;;;;;;;4996971;28;100192;-73
2022/12/09 11:03:19;;;;;;;43.60;27.83;;;;;;;;;;4994445;28;100016;-72
2022/12/09 11:05:53;;;;;;;43.42;26.38;;;;;;;;;;4996913;28;100108;-72
2022/12/09 11:08:21;;;;;;;48.67;28.85;;;;;;;;;;5007409;28;100844;-72
2022/12/09 11:10:49;;;;;;;35.50;22.70;;;;;;;;;;4994836;28;99575;-72
2022/12/09 11:13:16;;;;;;;41.70;26.63;;;;;;;;;;5001534;28;99057;-71
2022/12/09 11:15:44;;;;;;;46.63;25.95;;;;;;;;;;4990532;28;99629;-73
2022/12/09 11:18:22;;;;;;;43.30;27.95;;;;;;;;;;4994104;28;98619;-72
2022/12/09 11:20:54;;;;;;;45.42;27.95;;;;;;;;;;4994294;28;99662;-72
2022/12/09 11:23:21;;;;;;;41.03;26.08;;;;;;;;;;4993133;28;101972;-73
2022/12/09 11:25:56;;;;;;;45.20;27.58;;;;;;;;;;4992258;28;100412;-73
2022/12/09 11:28:28;;;;;;;47.92;28.25;;;;;;;;;;4994710;28;99309;-72
2022/12/09 11:30:55;;;;;;;46.45;27.45;;;;;;;;;;5000378;28;100261;-72
2022/12/09 11:34:07;;;;;;;41.70;28.02;;;;;;;;;;4985087;28;99712;-72
2022/12/09 11:36:36;;;;;;;38.80;24.98;;;;;;;;;;4972112;28;100193;-72
2022/12/09 11:39:15;;;;;;;46.00;27.20;;;;;;;;;;4995703;28;99424;-72
2022/12/09 11:44:31;;;;;;;39.85;25.13;;;;;;;;;;4994312;28;99199;-73
2022/12/09 11:47:02;;;;;;;39.60;24.85;;;;;;;;;;4992992;28;99206;-72
2022/12/09 11:49:31;;;;;;;42.35;25.85;;;;;;;;;;5002454;28;100149;-72
2022/12/09 11:52:15;;;;;;;40.30;24.45;;;;;;;;;;4990095;28;100446;-73
2022/12/09 11:54:48;;;;;;;42.70;23.67;;;;;;;;;;4995022;28;100152;-71
2022/12/09 11:57:20;;;;;;;42.33;23.98;;;;;;;;;;4987383;28;100577;-73
2022/12/09 11:59:49;;;;;;;34.13;23.40;;;;;;;;;;4988672;28;99979;-73
2022/12/09 12:02:28;;;;;;;33.55;23.55;;;;;;;;;;5004217;28;100330;-73
2022/12/09 12:04:58;;;;;;;39.35;24.65;;;;;;;;;;4988452;28;100410;-72
2022/12/09 12:07:27;;;;;;;35.92;23.40;;;;;;;;;;5001090;28;99289;-73
2022/12/09 12:09:55;;;;;;;37.17;24.25;;;;;;;;;;4999491;28;99618;-72
2022/12/09 12:12:33;;;;;;;37.78;22.63;;;;;;;;;;4996209;28;99770;-72
2022/12/09 12:15:01;;;;;;;37.97;24.08;;;;;;;;;;4989527;28;100026;-71
2022/12/09 12:17:33;;;;;;;37.58;24.15;;;;;;;;;;4998807;28;100095;-72
2022/12/09 12:20:00;;;;;;;44.38;25.38;;;;;;;;;;4996013;28;99935;-71
2022/12/09 12:22:27;;;;;;;41.17;23.58;;;;;;;;;;4993807;28;100941;-72
2022/12/09 12:25:19;;;;;;;34.03;24.42;;;;;;;;;;4997700;28;99413;-72
2022/12/09 12:27:55;;;;;;;35.15;21.80;;;;;;;;;;4994192;28;100164;-72
2022/12/09 12:30:30;;;;;;;37.22;23.30;;;;;;;;;;4995725;28;100321;-73
2022/12/09 12:33:05;;;;;;;36.92;22.63;;;;;;;;;;4987153;28;100195;-70
2022/12/09 12:36:03;;;;;;;38.88;23.65;;;;;;;;;;5002767;28;99183;-73
2022/12/09 12:38:51;;;;;;;35.22;24.65;;;;;;;;;;4996156;28;100397;-70
2022/12/09 12:41:20;;;;;;;32.22;21.42;;;;;;;;;;4987067;28;100618;-70
2022/12/09 12:46:46;;;;;;;35.40;23.25;;;;;;;;;;4998895;28;99942;-70
2022/12/09 12:49:12;;;;;;;33.60;22.40;;;;;;;;;;4998332;28;99121;-71
2022/12/09 12:52:00;;;;;;;37.42;23.40;;;;;;;;;;4999116;28;99556;-70
2022/12/09 12:54:36;;;;;;;35.17;22.23;;;;;;;;;;4988475;28;100252;-69
2022/12/09 12:57:08;;;;;;;37.08;22.17;;;;;;;;;;4994660;28;100094;-71
2022/12/09 12:59:47;;;;;;;37.00;23.90;;;;;;;;;;4996234;28;99082;-69
2022/12/09 13:02:40;;;;;;;31.80;21.27;;;;;;;;;;4988615;28;99470;-70
2022/12/09 13:05:38;;;;;;;39.03;22.00;;;;;;;;;;4998816;28;98558;-69
2022/12/09 13:08:23;;;;;;;37.83;23.17;;;;;;;;;;4993848;28;99294;-71
2022/12/09 13:10:54;;;;;;;36.63;22.05;;;;;;;;;;4997524;28;98996;-70
2022/12/09 13:13:23;;;;;;;32.40;22.50;;;;;;;;;;4999672;28;99249;-70
2022/12/09 13:15:51;;;;;;;42.25;21.63;;;;;;;;;;4994390;28;99360;-70
2022/12/09 13:18:20;;;;;;;32.28;22.00;;;;;;;;;;5002234;28;99664;-70
2022/12/09 13:20:51;;;;;;;38.72;21.10;;;;;;;;;;4995339;28;99298;-70
2022/12/09 13:23:34;;;;;;;32.95;21.88;;;;;;;;;;5001723;28;99885;-70
2022/12/09 13:26:20;;;;;;;29.55;19.58;;;;;;;;;;4997279;28;99008;-71
2022/12/09 13:28:52;;;;;;;30.60;20.23;;;;;;;;;;5001689;28;99511;-71
2022/12/09 13:31:21;;;;;;;36.45;21.98;;;;;;;;;;4994287;28;99146;-71
2022/12/09 13:33:58;;;;;;;33.85;22.17;;;;;;;;;;4995514;28;99206;-72
2022/12/09 13:36:24;;;;;;;37.33;22.40;;;;;;;;;;4996491;28;99175;-72
2022/12/09 13:38:51;;;;;;;31.75;21.10;;;;;;;;;;4992339;28;102057;-72
2022/12/09 13:41:29;;;;;;;29.08;19.65;;;;;;;;;;4988759;28;100784;-73
2022/12/09 13:44:03;;;;;;;32.47;21.20;;;;;;;;;;4998260;28;100677;-72
2022/12/09 13:46:30;;;;;;;37.00;24.38;;;;;;;;;;4987479;28;100167;-72
2022/12/09 13:48:57;;;;;;;36.70;23.33;;;;;;;;;;4989969;28;100154;-70
2022/12/09 13:51:26;;;;;;;34.25;22.33;;;;;;;;;;4987150;28;100358;-73
2022/12/09 13:54:02;;;;;;;32.60;21.45;;;;;;;;;;4994577;28;100113;-74
2022/12/09 13:56:31;;;;;;;32.28;21.90;;;;;;;;;;5002219;28;98564;-73
2022/12/09 13:59:02;;;;;;;36.10;22.67;;;;;;;;;;5000754;28;100579;-72
2022/12/09 14:01:28;;;;;;;32.38;21.27;;;;;;;;;;5000873;28;100234;-71
2022/12/09 14:04:00;;;;;;;34.90;23.70;;;;;;;;;;4997919;28;101012;-71
2022/12/09 14:06:37;;;;;;;32.60;22.00;;;;;;;;;;4998267;28;99954;-71
2022/12/09 14:09:16;;;;;;;32.03;22.17;;;;;;;;;;4993731;28;100376;-71
2022/12/09 14:11:45;;;;;;;35.53;22.88;;;;;;;;;;5000845;28;100097;-71
2022/12/09 14:14:24;;;;;;;36.42;23.58;;;;;;;;;;4989694;28;99196;-72
2022/12/09 14:16:51;;;;;;;33.78;22.90;;;;;;;;;;4994377;28;100331;-71
2022/12/09 14:19:24;;;;;;;39.58;23.10;;;;;;;;;;4999760;28;100232;-71
2022/12/09 14:22:15;;;;;;;34.13;21.65;;;;;;;;;;4997894;28;100037;-71
2022/12/09 14:24:48;;;;;;;35.25;23.27;;;;;;;;;;4998458;28;100652;-71
2022/12/09 14:27:19;;;;;;;37.97;23.23;;;;;;;;;;4999069;28;100128;-70
2022/12/09 14:29:55;;;;;;;36.83;22.92;;;;;;;;;;5001661;28;99925;-71